Time;durP1;ratioP1;P1;durP2;ratioP2;P2;SDS_P1;SDS_P2;PMS_P1;PMS_P2;Temp;Humidity;BMP_temperature;BMP_pressure;BME280_temperature;BME280_humidity;BME280_pressure;Samples;Min_cycle;Max_cycle;Signal;HPM_P1;HPM_P2
2022/11/19 00:01:56;;;;;;;0.50;0.50;;;4.50;99.90;;;;;;5076690;28;20281;-81
2022/11/19 00:07:05;;;;;;;0.50;0.40;;;4.50;99.90;;;;;;5014064;28;20192;-79
2022/11/19 00:09:32;;;;;;;0.50;0.40;;;4.50;99.90;;;;;;5013607;28;20224;-76
2022/11/19 00:14:43;;;;;;;1.15;1.15;;;4.50;99.90;;;;;;5012020;28;20262;-80
2022/11/19 00:17:10;;;;;;;1.45;1.35;;;4.50;99.90;;;;;;5012842;28;20205;-79
2022/11/19 00:19:37;;;;;;;0.88;0.75;;;4.50;99.90;;;;;;5012685;28;20212;-79
2022/11/19 00:22:05;;;;;;;0.50;0.50;;;4.40;99.90;;;;;;5013119;28;20208;-79
2022/11/19 00:24:32;;;;;;;0.55;0.45;;;4.30;99.90;;;;;;5011899;28;20668;-79
2022/11/19 00:26:59;;;;;;;0.90;0.65;;;4.40;99.90;;;;;;5011482;28;20191;-79
2022/11/19 00:29:26;;;;;;;0.50;0.50;;;4.40;99.90;;;;;;5012463;28;20231;-79
2022/11/19 00:31:52;;;;;;;4.63;1.48;;;4.30;99.90;;;;;;5012449;28;20246;-81
2022/11/19 00:34:19;;;;;;;2.75;1.83;;;4.30;99.90;;;;;;5011756;28;20192;-77
2022/11/19 00:36:46;;;;;;;1.08;1.08;;;4.30;99.90;;;;;;5012996;28;20234;-80
2022/11/19 00:39:14;;;;;;;0.77;0.77;;;4.30;99.90;;;;;;5069965;28;20300;-79
2022/11/19 00:41:41;;;;;;;2.45;1.40;;;4.20;99.90;;;;;;5074456;28;20194;-79
2022/11/19 00:44:08;;;;;;;2.10;1.63;;;4.20;99.90;;;;;;5073526;28;20196;-79
2022/11/19 00:46:35;;;;;;;0.50;0.40;;;4.10;99.90;;;;;;5074220;28;20632;-79
2022/11/19 00:49:01;;;;;;;3.20;0.80;;;4.10;99.90;;;;;;5073943;28;20257;-80
2022/11/19 00:51:30;;;;;;;4.57;1.88;;;4.10;99.90;;;;;;5074441;28;20194;-79
2022/11/19 00:53:57;;;;;;;0.50;0.40;;;4.00;99.90;;;;;;5073224;28;20190;-79
2022/11/19 00:56:27;;;;;;;2.63;1.52;;;4.00;99.90;;;;;;5074533;28;20292;-79
2022/11/19 00:58:54;;;;;;;1.98;1.48;;;4.00;99.90;;;;;;5073833;28;20714;-78
2022/11/19 01:01:24;;;;;;;2.83;2.13;;;3.90;99.90;;;;;;5074243;28;20304;-79
2022/11/19 01:03:52;;;;;;;0.50;0.40;;;3.90;99.90;;;;;;5073784;28;20236;-79
2022/11/19 01:06:21;;;;;;;0.82;0.80;;;3.90;99.90;;;;;;5074232;28;20225;-80
2022/11/19 01:08:49;;;;;;;2.75;1.45;;;3.80;99.90;;;;;;5075397;28;20301;-80
2022/11/19 01:11:18;;;;;;;0.50;0.40;;;3.90;99.90;;;;;;5075484;28;20281;-80
2022/11/19 01:13:47;;;;;;;0.50;0.40;;;3.90;99.90;;;;;;5074662;28;20387;-77
2022/11/19 01:16:16;;;;;;;0.85;0.85;;;3.90;99.90;;;;;;5074350;28;20280;-80
2022/11/19 01:18:44;;;;;;;0.50;0.40;;;3.90;99.90;;;;;;5074435;28;20304;-80
2022/11/19 01:21:12;;;;;;;3.55;3.25;;;3.80;99.90;;;;;;5074670;28;20288;-80
2022/11/19 01:23:39;;;;;;;0.50;0.40;;;3.80;99.90;;;;;;5074062;28;20194;-76
2022/11/19 01:26:07;;;;;;;0.63;0.63;;;3.80;99.90;;;;;;5073319;28;20274;-80
2022/11/19 01:28:34;;;;;;;0.50;0.50;;;3.80;99.90;;;;;;5074154;28;20217;-79
2022/11/19 01:31:06;;;;;;;2.35;2.20;;;3.80;99.90;;;;;;5074730;28;20311;-80
2022/11/19 01:33:33;;;;;;;1.98;1.80;;;3.80;99.90;;;;;;5074334;28;20183;-80
2022/11/19 01:36:02;;;;;;;0.50;0.40;;;3.70;99.90;;;;;;5073032;28;20666;-77
2022/11/19 01:38:30;;;;;;;0.70;0.70;;;3.70;99.90;;;;;;5074147;28;20210;-80
2022/11/19 01:40:58;;;;;;;1.35;0.70;;;3.80;99.90;;;;;;5074767;28;20193;-80
2022/11/19 01:43:41;;;;;;;0.75;0.75;;;3.80;99.90;;;;;;5074038;28;20308;-80
2022/11/19 01:46:09;;;;;;;0.60;0.60;;;3.80;99.90;;;;;;5073503;28;20208;-81
2022/11/19 01:48:39;;;;;;;4.45;4.15;;;3.80;99.90;;;;;;5073586;28;20213;-80
2022/11/19 01:51:10;;;;;;;1.33;1.27;;;3.80;99.90;;;;;;5074420;28;20224;-79
2022/11/19 01:53:38;;;;;;;6.65;2.17;;;3.70;99.90;;;;;;5073843;28;20183;-79
2022/11/19 01:56:08;;;;;;;4.03;3.45;;;3.70;99.90;;;;;;5073437;28;20296;-80
2022/11/19 01:58:38;;;;;;;1.02;1.02;;;3.70;99.90;;;;;;5073400;28;20217;-79
2022/11/19 02:01:06;;;;;;;4.60;3.05;;;3.60;99.90;;;;;;5073451;28;20285;-80
2022/11/19 02:03:34;;;;;;;5.07;1.55;;;3.60;99.90;;;;;;5073099;28;20215;-80
2022/11/19 02:06:03;;;;;;;1.42;0.75;;;3.60;99.90;;;;;;5071780;28;20296;-77
2022/11/19 02:08:37;;;;;;;6.38;2.15;;;3.60;99.90;;;;;;5072362;28;20214;-79
2022/11/19 02:11:30;;;;;;;3.33;3.22;;;3.60;99.90;;;;;;5072665;28;20353;-79
2022/11/19 02:14:07;;;;;;;2.35;1.85;;;3.50;99.90;;;;;;5072937;28;20622;-80
2022/11/19 02:16:44;;;;;;;0.70;0.70;;;3.50;99.90;;;;;;5073164;28;20265;-78
2022/11/19 02:19:37;;;;;;;1.15;1.05;;;3.40;99.90;;;;;;5071670;28;20229;-79
2022/11/19 02:22:16;;;;;;;0.98;0.98;;;3.40;99.90;;;;;;5073290;28;20203;-79
2022/11/19 02:24:51;;;;;;;0.50;0.40;;;3.40;99.90;;;;;;5071750;28;20197;-79
2022/11/19 02:27:50;;;;;;;1.05;0.60;;;3.50;99.90;;;;;;5071861;28;20180;-79
2022/11/19 02:30:19;;;;;;;4.40;2.15;;;3.40;99.90;;;;;;5066374;28;20217;-78
2022/11/19 02:32:56;;;;;;;1.50;1.40;;;3.40;99.90;;;;;;5072261;28;20198;-78
2022/11/19 02:35:32;;;;;;;4.57;4.38;;;3.20;99.90;;;;;;5071649;28;20658;-79
2022/11/19 02:38:02;;;;;;;1.55;1.45;;;3.20;99.90;;;;;;5071985;28;20297;-78
2022/11/19 02:40:32;;;;;;;4.63;2.15;;;3.30;99.90;;;;;;5072314;28;20188;-78
2022/11/19 02:43:07;;;;;;;3.90;3.35;;;3.20;99.90;;;;;;5072462;28;20194;-78
2022/11/19 02:45:37;;;;;;;0.50;0.40;;;3.20;99.90;;;;;;5071306;28;20643;-79
2022/11/19 02:48:09;;;;;;;2.63;2.15;;;3.10;99.90;;;;;;5072086;28;20520;-79
2022/11/19 02:50:42;;;;;;;0.82;0.82;;;3.10;99.90;;;;;;5071989;28;20297;-76
2022/11/19 02:53:10;;;;;;;1.98;1.45;;;3.10;99.90;;;;;;5072463;28;20197;-79
2022/11/19 02:55:38;;;;;;;0.50;0.50;;;3.20;99.90;;;;;;5071462;28;20208;-79
2022/11/19 02:58:09;;;;;;;4.95;3.20;;;3.20;99.90;;;;;;5071877;28;20224;-79
2022/11/19 03:06:17;;;;;;;1.20;1.15;;;3.10;99.90;;;;;;5072423;28;20678;-80
2022/11/19 03:08:45;;;;;;;0.50;0.40;;;3.10;99.90;;;;;;5073432;28;20228;-80
2022/11/19 03:11:20;;;;;;;1.00;0.85;;;3.00;99.90;;;;;;5072720;28;20305;-78
2022/11/19 03:16:53;;;;;;;4.32;3.97;;;3.00;99.90;;;;;;5073811;28;20173;-80
2022/11/19 03:19:29;;;;;;;4.20;3.00;;;3.00;99.90;;;;;;5074124;28;20217;-79
2022/11/19 03:21:58;;;;;;;9.30;8.80;;;2.90;99.90;;;;;;5072870;28;20725;-80
2022/11/19 03:24:30;;;;;;;1.77;0.93;;;2.80;99.90;;;;;;5073994;28;20324;-80
2022/11/19 03:27:04;;;;;;;3.45;2.80;;;2.90;99.90;;;;;;5073202;28;20663;-80
2022/11/19 03:29:34;;;;;;;1.88;0.88;;;3.00;99.90;;;;;;5073144;28;20216;-81
2022/11/19 03:32:06;;;;;;;1.52;1.35;;;3.00;99.90;;;;;;5072071;28;20638;-80
2022/11/19 03:34:36;;;;;;;0.65;0.65;;;3.00;99.90;;;;;;5076019;28;20185;-79
2022/11/19 03:37:04;;;;;;;1.42;0.93;;;2.90;99.90;;;;;;5075974;28;20193;-79
2022/11/19 03:39:34;;;;;;;0.50;0.50;;;2.90;99.90;;;;;;5075765;28;20218;-79
2022/11/19 03:42:03;;;;;;;1.38;0.85;;;2.90;99.90;;;;;;5075471;28;20197;-79
2022/11/19 03:44:34;;;;;;;4.00;2.90;;;2.90;99.90;;;;;;5074680;28;20200;-79
2022/11/19 03:47:07;;;;;;;2.72;2.10;;;2.90;99.90;;;;;;5074817;28;20284;-79
2022/11/19 03:49:37;;;;;;;0.50;0.40;;;2.90;99.90;;;;;;5075643;28;20217;-75
2022/11/19 03:52:09;;;;;;;0.93;0.93;;;2.80;99.90;;;;;;5075126;28;20261;-79
2022/11/19 03:54:36;;;;;;;0.88;0.88;;;2.80;99.90;;;;;;5074144;28;20181;-79
2022/11/19 03:57:05;;;;;;;3.55;2.72;;;2.80;99.90;;;;;;5075219;28;20292;-79
2022/11/19 03:59:32;;;;;;;2.90;2.70;;;2.90;99.90;;;;;;5075013;28;20255;-79
2022/11/19 04:02:04;;;;;;;1.20;1.20;;;2.90;99.90;;;;;;5074904;28;20198;-79
2022/11/19 04:04:36;;;;;;;2.85;2.55;;;2.80;99.90;;;;;;5074159;28;20219;-79
2022/11/19 04:07:05;;;;;;;3.22;2.05;;;2.80;99.90;;;;;;5075149;28;20231;-80
2022/11/19 04:09:32;;;;;;;3.00;2.63;;;2.80;99.90;;;;;;5074474;28;20214;-79
2022/11/19 04:11:59;;;;;;;0.50;0.40;;;2.90;99.90;;;;;;5074888;28;20280;-79
2022/11/19 04:14:26;;;;;;;5.68;0.90;;;2.80;99.90;;;;;;5073794;28;20304;-79
2022/11/19 04:16:53;;;;;;;12.15;10.98;;;2.70;99.90;;;;;;5075088;28;20197;-79
2022/11/19 04:19:21;;;;;;;11.73;7.38;;;2.60;99.90;;;;;;5074541;28;20243;-77
2022/11/19 04:21:48;;;;;;;1.88;1.75;;;2.70;99.90;;;;;;5074641;28;20193;-79
2022/11/19 04:24:15;;;;;;;4.30;3.30;;;2.60;99.90;;;;;;5073617;28;20223;-79
2022/11/19 04:26:42;;;;;;;2.22;2.03;;;2.60;99.90;;;;;;5074563;28;20277;-80
2022/11/19 04:29:09;;;;;;;2.67;2.25;;;2.60;99.90;;;;;;5074272;28;20253;-79
2022/11/19 04:31:36;;;;;;;2.00;1.20;;;2.60;99.90;;;;;;5074522;28;20308;-79
2022/11/19 04:34:03;;;;;;;2.00;1.88;;;2.60;99.90;;;;;;5073803;28;20196;-79
2022/11/19 04:36:31;;;;;;;0.55;0.55;;;2.60;99.90;;;;;;5075045;28;20284;-79
2022/11/19 04:38:58;;;;;;;1.77;1.67;;;2.50;99.90;;;;;;5074332;28;20268;-79
2022/11/19 04:41:25;;;;;;;7.88;4.53;;;2.60;99.90;;;;;;5074297;28;20758;-78
2022/11/19 04:43:51;;;;;;;7.43;2.28;;;2.50;99.90;;;;;;5072744;28;20288;-78
2022/11/19 04:46:18;;;;;;;4.18;3.65;;;2.60;99.90;;;;;;5073970;28;20295;-79
2022/11/19 04:48:45;;;;;;;3.65;3.40;;;2.60;99.90;;;;;;5074342;28;20602;-79
2022/11/19 04:51:12;;;;;;;0.90;0.90;;;2.60;99.90;;;;;;5073654;28;20330;-79
2022/11/19 04:53:40;;;;;;;3.65;2.53;;;2.50;99.90;;;;;;5074215;28;20570;-79
2022/11/19 04:56:07;;;;;;;4.43;1.95;;;2.60;99.90;;;;;;5073168;28;20208;-78
2022/11/19 04:58:34;;;;;;;9.00;3.42;;;2.50;99.90;;;;;;5073925;28;20268;-78
2022/11/19 05:01:01;;;;;;;0.50;0.50;;;2.50;99.90;;;;;;5073812;28;20240;-79
2022/11/19 05:03:28;;;;;;;2.58;2.45;;;2.50;99.90;;;;;;5073576;28;20201;-79
2022/11/19 05:05:55;;;;;;;7.25;5.70;;;2.50;99.90;;;;;;5072774;28;20209;-79
2022/11/19 05:08:22;;;;;;;1.00;0.90;;;2.50;99.90;;;;;;5065588;28;20304;-79
2022/11/19 05:10:50;;;;;;;3.75;3.45;;;2.50;99.90;;;;;;5073430;28;20210;-79
2022/11/19 05:13:17;;;;;;;4.45;3.20;;;2.50;99.90;;;;;;5073940;28;20307;-79
2022/11/19 05:15:44;;;;;;;1.17;1.08;;;2.40;99.90;;;;;;5073280;28;20283;-76
2022/11/19 05:18:12;;;;;;;5.38;2.08;;;2.40;99.90;;;;;;5073530;28;20301;-79
2022/11/19 05:20:39;;;;;;;0.50;0.40;;;2.50;99.90;;;;;;5073041;28;20200;-78
2022/11/19 05:23:06;;;;;;;16.10;6.30;;;2.50;99.90;;;;;;5072674;28;20676;-78
2022/11/19 05:25:33;;;;;;;17.30;6.45;;;2.50;99.90;;;;;;5072361;28;20219;-78
2022/11/19 05:28:01;;;;;;;12.82;6.97;;;2.50;99.90;;;;;;5072849;28;20217;-78
2022/11/19 05:30:28;;;;;;;2.88;2.67;;;2.40;99.90;;;;;;5073022;28;20240;-78
2022/11/19 05:32:54;;;;;;;1.73;1.63;;;2.40;99.90;;;;;;5072643;28;20246;-78
2022/11/19 05:35:21;;;;;;;4.05;3.50;;;2.40;99.90;;;;;;5072488;28;20563;-79
2022/11/19 05:37:49;;;;;;;3.63;3.50;;;2.40;99.90;;;;;;5075186;28;20198;-77
2022/11/19 05:40:16;;;;;;;1.23;1.23;;;2.50;99.90;;;;;;5073949;28;20230;-79
2022/11/19 05:42:43;;;;;;;3.95;3.55;;;2.50;99.90;;;;;;5073926;28;20225;-79
2022/11/19 05:45:12;;;;;;;1.17;0.85;;;2.60;99.90;;;;;;5072559;28;20236;-79
2022/11/19 05:47:39;;;;;;;1.02;0.80;;;2.50;99.90;;;;;;5072922;28;20666;-79
2022/11/19 05:50:06;;;;;;;1.90;1.80;;;2.60;99.90;;;;;;5073705;28;20204;-75
2022/11/19 05:52:33;;;;;;;0.50;0.50;;;2.50;99.90;;;;;;5072780;28;20198;-79
2022/11/19 05:55:01;;;;;;;3.05;1.98;;;2.50;99.90;;;;;;5072377;28;20208;-80
2022/11/19 05:57:28;;;;;;;0.50;0.40;;;2.60;99.90;;;;;;5073801;28;20200;-77
2022/11/19 05:59:54;;;;;;;0.50;0.40;;;2.50;99.90;;;;;;5073476;28;20301;-80
2022/11/19 06:02:22;;;;;;;0.80;0.77;;;2.40;99.90;;;;;;5073711;28;20193;-79
2022/11/19 06:04:49;;;;;;;5.18;2.75;;;2.40;99.90;;;;;;5073179;28;20191;-80
2022/11/19 06:07:16;;;;;;;3.70;3.45;;;2.30;99.90;;;;;;5074924;28;20197;-80
2022/11/19 06:09:43;;;;;;;5.63;5.13;;;2.20;99.90;;;;;;5074386;28;20227;-79
2022/11/19 06:12:10;;;;;;;5.70;5.18;;;2.20;99.90;;;;;;5073245;28;20224;-80
2022/11/19 06:14:37;;;;;;;7.93;4.93;;;2.30;99.90;;;;;;5072750;28;20609;-80
2022/11/19 06:17:04;;;;;;;1.83;1.73;;;2.20;99.90;;;;;;5072304;28;20295;-79
2022/11/19 06:19:32;;;;;;;5.45;3.95;;;2.20;99.90;;;;;;5072380;28;20240;-79
2022/11/19 06:21:58;;;;;;;7.95;2.00;;;2.20;99.90;;;;;;5072340;28;20195;-79
2022/11/19 06:24:25;;;;;;;7.35;5.90;;;2.20;99.90;;;;;;5071685;28;20686;-79
2022/11/19 06:26:52;;;;;;;7.05;3.38;;;2.20;99.90;;;;;;5072325;28;20197;-79
2022/11/19 06:29:19;;;;;;;0.50;0.50;;;2.10;99.90;;;;;;5071885;28;20216;-79
2022/11/19 06:31:46;;;;;;;2.90;2.70;;;2.10;99.90;;;;;;5072149;28;20226;-80
2022/11/19 06:34:13;;;;;;;8.77;3.35;;;2.10;99.90;;;;;;5071465;28;20212;-79
2022/11/19 06:36:41;;;;;;;13.52;5.65;;;2.10;99.90;;;;;;5073134;28;20190;-79
2022/11/19 06:39:09;;;;;;;2.22;2.13;;;2.00;99.90;;;;;;5071571;28;20220;-79
2022/11/19 06:41:36;;;;;;;5.93;5.55;;;2.00;99.90;;;;;;5071695;28;20218;-79
2022/11/19 06:44:03;;;;;;;3.83;3.45;;;2.00;99.90;;;;;;5071042;28;20287;-79
2022/11/19 06:46:30;;;;;;;6.55;2.60;;;2.00;99.90;;;;;;5072193;28;20681;-77
2022/11/19 06:48:57;;;;;;;3.03;2.80;;;2.00;99.90;;;;;;5072342;28;20323;-79
2022/11/19 06:51:24;;;;;;;3.50;1.95;;;2.00;99.90;;;;;;5072652;28;20217;-79
2022/11/19 06:53:52;;;;;;;0.50;0.50;;;2.00;99.90;;;;;;5072276;28;20223;-78
2022/11/19 06:56:19;;;;;;;3.83;3.63;;;1.90;99.90;;;;;;5072788;28;20202;-78
2022/11/19 06:58:46;;;;;;;3.88;3.17;;;1.90;99.90;;;;;;5072398;28;20226;-79
2022/11/19 07:01:14;;;;;;;3.17;1.85;;;2.00;99.90;;;;;;5072743;28;20196;-80
2022/11/19 07:03:41;;;;;;;7.32;2.25;;;2.00;99.90;;;;;;5072017;28;20209;-75
2022/11/19 07:06:08;;;;;;;1.33;1.23;;;2.00;99.90;;;;;;5072050;28;20196;-79
2022/11/19 07:08:35;;;;;;;1.77;0.93;;;2.00;99.90;;;;;;5073358;28;20244;-78
2022/11/19 07:11:24;;;;;;;1.35;1.35;;;2.00;99.90;;;;;;5073616;28;20575;-80
2022/11/19 07:13:57;;;;;;;1.80;1.70;;;2.00;99.90;;;;;;5071872;28;20206;-80
2022/11/19 07:16:24;;;;;;;3.58;3.17;;;2.00;99.90;;;;;;5073007;28;20204;-80
2022/11/19 07:18:51;;;;;;;2.13;1.95;;;2.00;99.90;;;;;;5073870;28;20277;-80
2022/11/19 07:21:18;;;;;;;1.55;1.05;;;2.00;99.90;;;;;;5073355;28;20193;-80
2022/11/19 07:23:45;;;;;;;3.80;2.97;;;2.00;99.90;;;;;;5073477;28;20197;-78
2022/11/19 07:26:13;;;;;;;12.10;8.65;;;2.00;99.90;;;;;;5070577;28;20200;-80
2022/11/19 07:28:40;;;;;;;3.65;1.83;;;2.00;99.90;;;;;;5073264;28;20213;-80
2022/11/19 07:31:07;;;;;;;1.17;1.08;;;2.00;99.90;;;;;;5072632;28;20528;-79
2022/11/19 07:33:35;;;;;;;1.63;1.52;;;2.00;99.90;;;;;;5072257;28;20196;-80
2022/11/19 07:36:02;;;;;;;3.67;2.97;;;2.00;99.90;;;;;;5071959;28;20197;-80
2022/11/19 07:38:28;;;;;;;1.00;1.00;;;2.10;99.90;;;;;;5073189;28;20221;-80
2022/11/19 07:40:56;;;;;;;3.15;2.95;;;2.00;99.90;;;;;;5072957;28;20644;-80
2022/11/19 07:43:23;;;;;;;1.10;1.10;;;2.10;99.90;;;;;;5072557;28;20219;-80
2022/11/19 07:45:50;;;;;;;3.45;1.35;;;2.00;99.90;;;;;;5071941;28;20586;-80
2022/11/19 07:48:17;;;;;;;1.25;1.00;;;2.00;99.90;;;;;;5073037;28;20221;-81
2022/11/19 07:50:49;;;;;;;4.93;2.53;;;2.00;99.90;;;;;;5072680;28;20667;-79
2022/11/19 07:53:16;;;;;;;2.25;1.20;;;2.00;99.90;;;;;;5072050;28;20288;-79
2022/11/19 07:55:45;;;;;;;0.77;0.77;;;2.00;99.90;;;;;;5072030;28;20203;-79
2022/11/19 07:58:13;;;;;;;0.50;0.50;;;2.10;99.90;;;;;;5072588;28;20270;-80
2022/11/19 08:00:41;;;;;;;3.30;3.00;;;2.10;99.90;;;;;;5071900;28;20549;-79
2022/11/19 08:03:10;;;;;;;0.70;0.70;;;2.10;99.90;;;;;;5072235;28;20296;-80
2022/11/19 08:05:39;;;;;;;1.73;1.63;;;2.10;99.90;;;;;;5070919;28;20215;-80
2022/11/19 08:08:06;;;;;;;0.65;0.65;;;2.10;99.90;;;;;;5071666;28;20316;-79
2022/11/19 08:10:32;;;;;;;1.60;1.02;;;2.10;99.90;;;;;;5071733;28;20203;-79
2022/11/19 08:13:05;;;;;;;1.58;1.58;;;2.10;99.90;;;;;;5071404;28;20214;-79
2022/11/19 08:15:34;;;;;;;4.38;3.97;;;2.10;99.90;;;;;;5071150;28;20269;-79
2022/11/19 08:18:14;;;;;;;3.08;2.83;;;2.10;99.90;;;;;;5071092;28;20221;-78
2022/11/19 08:20:41;;;;;;;0.95;0.80;;;2.10;99.90;;;;;;5075989;28;20282;-80
2022/11/19 08:23:09;;;;;;;3.55;2.42;;;2.00;99.90;;;;;;5076733;28;20617;-80
2022/11/19 08:25:36;;;;;;;2.25;1.35;;;2.00;99.90;;;;;;5073325;28;20200;-80
2022/11/19 08:28:05;;;;;;;1.13;1.13;;;2.00;99.90;;;;;;5076108;28;20339;-79
2022/11/19 08:30:32;;;;;;;1.50;1.40;;;2.00;99.90;;;;;;5075584;28;20250;-79
2022/11/19 08:32:59;;;;;;;5.75;2.05;;;2.00;99.90;;;;;;5075663;28;20214;-80
2022/11/19 08:35:27;;;;;;;3.10;2.88;;;2.10;99.90;;;;;;5075259;28;20677;-80
2022/11/19 08:37:54;;;;;;;5.15;4.68;;;2.10;99.90;;;;;;5075863;28;20280;-80
2022/11/19 08:40:21;;;;;;;1.10;0.98;;;2.10;99.90;;;;;;5075357;28;20193;-80
2022/11/19 08:42:58;;;;;;;1.40;0.90;;;2.10;99.90;;;;;;5075316;28;20228;-80
2022/11/19 08:45:26;;;;;;;14.23;2.28;;;2.10;99.90;;;;;;5075502;28;20657;-80
2022/11/19 08:47:53;;;;;;;0.80;0.80;;;2.00;99.90;;;;;;5075835;28;20228;-80
2022/11/19 08:50:20;;;;;;;4.05;2.58;;;2.00;99.90;;;;;;5076492;28;20265;-80
2022/11/19 08:52:53;;;;;;;0.70;0.70;;;2.00;99.90;;;;;;5075294;28;20224;-81
2022/11/19 08:55:20;;;;;;;0.60;0.40;;;2.00;99.90;;;;;;5075041;28;20192;-80
2022/11/19 08:57:47;;;;;;;5.88;5.55;;;2.00;99.90;;;;;;5075392;28;20282;-80
2022/11/19 09:00:15;;;;;;;0.70;0.70;;;2.00;99.90;;;;;;5075601;28;20251;-80
2022/11/19 09:02:42;;;;;;;0.50;0.50;;;2.00;99.90;;;;;;5075555;28;20276;-76
2022/11/19 09:05:09;;;;;;;1.58;1.48;;;2.10;99.90;;;;;;5075173;28;20198;-80
2022/11/19 09:07:36;;;;;;;1.50;1.50;;;2.20;99.90;;;;;;5074979;28;20285;-80
2022/11/19 09:10:05;;;;;;;0.90;0.80;;;2.10;99.90;;;;;;5074551;28;20246;-79
2022/11/19 09:12:32;;;;;;;3.22;3.03;;;2.00;99.90;;;;;;5074763;28;20274;-79
2022/11/19 09:14:58;;;;;;;7.45;2.85;;;2.00;99.90;;;;;;5072860;28;20207;-81
2022/11/19 09:17:25;;;;;;;1.13;0.80;;;1.90;99.90;;;;;;5075008;28;20884;-81
2022/11/19 09:19:52;;;;;;;1.60;1.50;;;1.90;99.90;;;;;;5075071;28;20224;-81
2022/11/19 09:22:19;;;;;;;0.50;0.50;;;1.70;99.90;;;;;;5075038;28;20190;-81
2022/11/19 09:24:46;;;;;;;2.45;2.25;;;1.70;99.90;;;;;;5074414;28;20697;-80
2022/11/19 09:27:14;;;;;;;1.05;1.05;;;1.70;99.90;;;;;;5073314;28;20203;-80
2022/11/19 09:29:41;;;;;;;1.05;0.70;;;1.70;99.90;;;;;;5074583;28;20209;-80
2022/11/19 09:32:07;;;;;;;1.98;1.85;;;1.70;99.90;;;;;;5074772;28;20270;-80
2022/11/19 09:34:36;;;;;;;0.60;0.60;;;1.80;99.90;;;;;;5073697;28;20200;-80
2022/11/19 09:37:03;;;;;;;6.85;2.05;;;1.80;99.90;;;;;;5074821;28;20196;-80
2022/11/19 09:39:30;;;;;;;2.55;2.45;;;1.80;99.90;;;;;;5074486;28;20309;-79
2022/11/19 09:42:16;;;;;;;4.20;2.70;;;1.80;99.90;;;;;;5074882;28;20200;-80
2022/11/19 09:45:00;;;;;;;1.33;0.90;;;1.80;99.90;;;;;;5073994;28;20262;-78
2022/11/19 09:47:47;;;;;;;6.47;1.40;;;1.90;99.90;;;;;;5073909;28;20236;-80
2022/11/19 09:50:18;;;;;;;1.60;1.50;;;1.90;99.90;;;;;;5074276;28;20268;-80
2022/11/19 09:52:49;;;;;;;2.83;2.63;;;2.00;99.90;;;;;;5074741;28;20216;-79
2022/11/19 09:55:23;;;;;;;1.88;1.77;;;2.00;99.90;;;;;;5073113;28;20186;-80
2022/11/19 09:57:53;;;;;;;1.95;1.85;;;2.00;99.90;;;;;;5052184;28;20192;-80
2022/11/19 10:00:27;;;;;;;0.80;0.60;;;2.00;99.90;;;;;;5055762;28;20293;-80
2022/11/19 10:02:54;;;;;;;2.58;2.42;;;2.00;99.90;;;;;;5058410;28;20249;-81
2022/11/19 10:05:29;;;;;;;0.50;0.45;;;2.00;99.90;;;;;;5065732;28;20194;-80
2022/11/19 10:08:04;;;;;;;2.95;2.67;;;2.00;99.90;;;;;;5074588;28;20350;-80
2022/11/19 10:10:40;;;;;;;1.05;1.05;;;2.00;99.90;;;;;;5073989;28;20182;-81
2022/11/19 10:13:19;;;;;;;3.25;2.90;;;2.10;99.90;;;;;;5074145;28;20224;-81
2022/11/19 10:16:02;;;;;;;0.65;0.63;;;2.00;99.90;;;;;;5070974;28;20325;-77
2022/11/19 10:18:39;;;;;;;3.38;3.17;;;1.90;99.90;;;;;;5074291;28;20784;-81
2022/11/19 10:21:11;;;;;;;1.85;1.75;;;2.00;99.90;;;;;;5074611;28;20286;-81
2022/11/19 10:23:49;;;;;;;1.50;1.45;;;1.90;99.90;;;;;;5074669;28;20269;-81
2022/11/19 10:26:18;;;;;;;0.50;0.50;;;2.00;99.90;;;;;;5073233;28;20594;-81
2022/11/19 10:28:53;;;;;;;0.63;0.63;;;2.00;99.90;;;;;;5073903;28;20217;-80
2022/11/19 10:31:28;;;;;;;0.50;0.50;;;2.10;99.90;;;;;;5065098;28;20256;-81
2022/11/19 10:34:01;;;;;;;3.58;3.15;;;2.10;99.90;;;;;;5073736;28;20192;-78
2022/11/19 10:36:33;;;;;;;0.65;0.65;;;2.20;99.90;;;;;;5073799;28;20185;-81
2022/11/19 10:39:06;;;;;;;0.50;0.40;;;2.30;99.90;;;;;;5073452;28;20232;-81
2022/11/19 10:41:37;;;;;;;0.50;0.40;;;2.40;99.90;;;;;;5073360;28;20634;-81
2022/11/19 10:44:36;;;;;;;1.02;0.88;;;2.40;99.90;;;;;;5073205;28;20181;-81
2022/11/19 10:47:06;;;;;;;2.25;2.15;;;2.60;99.90;;;;;;5074081;28;20288;-80
2022/11/19 10:49:37;;;;;;;4.03;3.72;;;2.70;99.90;;;;;;5073956;28;20311;-81
2022/11/19 10:52:05;;;;;;;0.60;0.60;;;2.90;99.90;;;;;;5073510;28;20572;-81
2022/11/19 10:54:32;;;;;;;0.50;0.47;;;3.00;99.90;;;;;;5073066;28;20204;-79
2022/11/19 10:57:01;;;;;;;0.70;0.70;;;3.10;99.90;;;;;;5072795;28;20196;-80
2022/11/19 10:59:31;;;;;;;0.60;0.60;;;3.10;99.90;;;;;;5072940;28;20214;-80
2022/11/19 11:02:03;;;;;;;1.17;1.00;;;3.10;99.90;;;;;;5072208;28;20788;-79
2022/11/19 11:04:31;;;;;;;0.65;0.65;;;3.20;99.90;;;;;;5072739;28;20284;-78
2022/11/19 11:07:00;;;;;;;1.02;1.02;;;3.40;99.90;;;;;;5072878;28;20568;-80
2022/11/19 11:09:32;;;;;;;1.02;0.93;;;3.60;99.90;;;;;;5072134;28;20642;-79
2022/11/19 11:14:53;;;;;;;2.80;2.70;;;3.80;99.90;;;;;;5070336;28;20192;-76
2022/11/19 11:17:23;;;;;;;0.60;0.50;;;3.80;99.90;;;;;;5064440;28;20193;-79
2022/11/19 11:20:00;;;;;;;0.70;0.70;;;3.80;99.90;;;;;;5072916;28;20324;-80
2022/11/19 11:22:28;;;;;;;0.63;0.57;;;4.00;99.90;;;;;;5072205;28;20190;-80
2022/11/19 11:24:56;;;;;;;0.60;0.60;;;4.20;99.90;;;;;;5071760;28;20193;-80
2022/11/19 11:27:27;;;;;;;1.17;1.10;;;4.30;99.90;;;;;;5072500;28;20283;-80
2022/11/19 11:30:17;;;;;;;1.58;1.58;;;4.40;99.90;;;;;;5072409;28;20313;-81
2022/11/19 11:32:44;;;;;;;1.15;1.08;;;4.40;99.90;;;;;;5072350;28;20217;-78
2022/11/19 11:35:30;;;;;;;5.72;3.13;;;4.50;99.90;;;;;;5072225;28;20196;-79
2022/11/19 11:37:59;;;;;;;1.05;1.00;;;4.50;99.90;;;;;;5072617;28;20222;-80
2022/11/19 11:40:26;;;;;;;0.50;0.40;;;4.60;99.90;;;;;;5072165;28;20272;-80
2022/11/19 11:42:53;;;;;;;1.30;1.20;;;4.70;99.90;;;;;;5072162;28;20232;-80
2022/11/19 11:45:29;;;;;;;0.88;0.82;;;4.90;99.90;;;;;;5071463;28;20195;-80
2022/11/19 11:47:58;;;;;;;1.25;1.15;;;5.00;99.90;;;;;;5072004;28;20218;-80
2022/11/19 11:50:28;;;;;;;1.25;1.15;;;5.00;99.90;;;;;;5072062;28;20298;-80
2022/11/19 11:52:57;;;;;;;1.35;0.82;;;5.00;99.90;;;;;;5072330;28;20366;-80
2022/11/19 11:55:31;;;;;;;1.75;1.65;;;4.80;99.90;;;;;;5075570;28;20193;-80
2022/11/19 11:58:00;;;;;;;0.77;0.77;;;4.70;99.90;;;;;;5077040;28;20210;-81
2022/11/19 12:00:34;;;;;;;4.50;2.03;;;4.70;99.90;;;;;;5075964;28;20201;-80
2022/11/19 12:03:03;;;;;;;1.92;1.83;;;4.90;99.90;;;;;;5075361;28;20268;-80
2022/11/19 12:05:44;;;;;;;1.30;1.30;;;4.80;99.90;;;;;;5078854;28;20223;-80
2022/11/19 12:08:24;;;;;;;0.80;0.70;;;4.80;99.90;;;;;;5075682;28;20337;-79
2022/11/19 12:10:57;;;;;;;4.20;0.95;;;4.70;99.90;;;;;;5075564;28;20245;-80
2022/11/19 12:13:46;;;;;;;1.73;1.15;;;4.70;99.90;;;;;;5075311;28;20224;-80
2022/11/19 12:16:20;;;;;;;0.98;0.98;;;4.60;99.90;;;;;;5073886;28;20189;-80
2022/11/19 12:19:01;;;;;;;4.47;2.58;;;4.60;99.90;;;;;;5078006;28;20674;-80
2022/11/19 12:21:38;;;;;;;0.65;0.65;;;4.70;99.90;;;;;;5078686;28;20244;-79
2022/11/19 12:24:22;;;;;;;1.10;1.10;;;4.70;99.90;;;;;;5074705;28;20211;-82
2022/11/19 12:26:59;;;;;;;2.38;2.28;;;4.80;99.90;;;;;;5075892;28;20179;-79
2022/11/19 12:29:33;;;;;;;0.95;0.95;;;4.80;99.90;;;;;;5077328;28;20300;-81
2022/11/19 12:32:16;;;;;;;0.70;0.70;;;4.80;99.90;;;;;;5076730;28;20189;-81
2022/11/19 12:35:04;;;;;;;1.45;1.35;;;4.80;99.90;;;;;;5074472;28;20183;-80
2022/11/19 12:37:46;;;;;;;4.13;3.92;;;4.90;99.90;;;;;;5076047;28;20231;-81
2022/11/19 12:40:25;;;;;;;1.20;1.20;;;4.90;99.90;;;;;;5075080;28;20258;-80
2022/11/19 12:42:58;;;;;;;1.00;0.88;;;4.90;99.90;;;;;;5077397;28;20190;-81
2022/11/19 12:45:35;;;;;;;0.93;0.90;;;4.80;99.90;;;;;;5074804;28;20617;-81
2022/11/19 12:48:25;;;;;;;0.95;0.85;;;4.70;99.90;;;;;;5074374;28;20305;-80
2022/11/19 12:51:00;;;;;;;2.88;1.52;;;4.60;99.90;;;;;;5075730;28;20202;-79
2022/11/19 12:53:41;;;;;;;0.50;0.40;;;4.50;99.90;;;;;;5074328;28;20216;-79
2022/11/19 12:56:21;;;;;;;1.63;1.60;;;4.50;99.90;;;;;;5074460;28;20197;-79
2022/11/19 12:59:02;;;;;;;1.45;1.35;;;4.60;99.90;;;;;;5075096;28;20336;-81
2022/11/19 13:01:34;;;;;;;0.60;0.60;;;4.50;99.90;;;;;;5075316;28;20610;-79
2022/11/19 13:04:10;;;;;;;1.77;1.67;;;4.50;99.90;;;;;;5073783;28;20631;-80
2022/11/19 13:06:42;;;;;;;0.50;0.40;;;4.40;99.90;;;;;;5074788;28;20190;-80
2022/11/19 13:09:16;;;;;;;2.15;1.95;;;4.40;99.90;;;;;;5074507;28;20316;-79
2022/11/19 13:11:47;;;;;;;1.02;0.93;;;4.20;99.90;;;;;;5074539;28;20174;-78
2022/11/19 13:14:23;;;;;;;0.77;0.77;;;4.20;99.90;;;;;;5073665;28;20224;-80
2022/11/19 13:16:53;;;;;;;12.07;1.23;;;4.10;99.90;;;;;;5073138;28;20221;-78
2022/11/19 13:19:24;;;;;;;1.23;1.08;;;4.00;99.90;;;;;;5074810;28;20214;-80
2022/11/19 13:21:55;;;;;;;3.60;2.13;;;4.00;99.90;;;;;;5074772;28;20312;-80
2022/11/19 13:24:31;;;;;;;1.48;1.42;;;4.10;99.90;;;;;;5073550;28;20194;-80
2022/11/19 13:27:02;;;;;;;1.50;1.40;;;4.20;99.90;;;;;;5074832;28;20197;-79
2022/11/19 13:29:36;;;;;;;1.40;0.82;;;4.10;99.90;;;;;;5074996;28;20215;-79
2022/11/19 13:32:10;;;;;;;1.05;0.93;;;4.10;99.90;;;;;;5074536;28;20284;-80